Time;durP1;ratioP1;P1;durP2;ratioP2;P2;SDS_P1;SDS_P2;PMS_P1;PMS_P2;Temp;Humidity;BMP_temperature;BMP_pressure;BME280_temperature;BME280_humidity;BME280_pressure;Samples;Min_cycle;Max_cycle;Signal;HPM_P1;HPM_P2
2023/01/07 00:01:02;;;;;;;36.37;26.90;;;;;;;;;;5051685;28;20673;-77
2023/01/07 00:03:28;;;;;;;37.10;27.80;;;;;;;;;;5066623;28;20227;-77
2023/01/07 00:06:01;;;;;;;39.70;27.20;;;;;;;;;;5052694;28;20268;-77
2023/01/07 00:08:30;;;;;;;38.43;27.73;;;;;;;;;;5067960;28;20193;-76
2023/01/07 00:10:57;;;;;;;35.67;25.93;;;;;;;;;;5050106;28;20212;-77
2023/01/07 00:13:23;;;;;;;37.47;28.37;;;;;;;;;;5049977;28;20169;-77
2023/01/07 00:15:49;;;;;;;40.43;28.83;;;;;;;;;;5051983;28;20739;-76
2023/01/07 00:18:15;;;;;;;41.50;30.13;;;;;;;;;;5071878;28;20197;-76
2023/01/07 00:20:41;;;;;;;43.40;30.97;;;;;;;;;;5068794;28;20188;-77
2023/01/07 00:23:07;;;;;;;44.03;30.57;;;;;;;;;;5068539;28;20184;-77
2023/01/07 00:28:37;;;;;;;63.33;35.87;;;;;;;;;;5067466;28;20234;-77
2023/01/07 00:31:05;;;;;;;84.87;41.57;;;;;;;;;;5051732;28;20184;-77
2023/01/07 00:33:33;;;;;;;72.47;41.13;;;;;;;;;;5053233;28;20235;-78
2023/01/07 00:36:04;;;;;;;77.40;42.70;;;;;;;;;;5071001;28;20552;-78
2023/01/07 00:38:30;;;;;;;88.00;42.30;;;;;;;;;;5068859;28;20284;-78
2023/01/07 00:40:56;;;;;;;105.43;47.37;;;;;;;;;;5057607;28;20177;-77
2023/01/07 00:43:22;;;;;;;94.77;44.87;;;;;;;;;;5050716;28;20181;-77
2023/01/07 00:45:48;;;;;;;109.07;48.83;;;;;;;;;;5052472;28;20185;-77
2023/01/07 00:48:14;;;;;;;129.50;51.73;;;;;;;;;;5053759;28;20196;-77
2023/01/07 00:50:40;;;;;;;91.33;46.20;;;;;;;;;;5070624;28;20184;-78
2023/01/07 00:53:06;;;;;;;75.83;43.20;;;;;;;;;;5069017;28;20185;-77
2023/01/07 00:55:32;;;;;;;102.13;47.87;;;;;;;;;;5052505;28;20646;-77
2023/01/07 00:57:58;;;;;;;82.50;45.37;;;;;;;;;;5051082;28;20621;-77
2023/01/07 01:00:25;;;;;;;83.27;44.53;;;;;;;;;;5053444;28;20645;-77
2023/01/07 01:02:52;;;;;;;97.60;47.70;;;;;;;;;;5068097;28;20184;-77
2023/01/07 01:05:18;;;;;;;85.00;47.57;;;;;;;;;;5052417;28;20192;-76
2023/01/07 01:07:45;;;;;;;83.43;46.07;;;;;;;;;;5070000;28;20202;-77
2023/01/07 01:13:16;;;;;;;109.27;48.70;;;;;;;;;;5064984;28;20215;-77
2023/01/07 01:15:46;;;;;;;102.07;49.63;;;;;;;;;;5069543;28;20587;-77
2023/01/07 01:18:12;;;;;;;116.17;51.00;;;;;;;;;;5068301;28;20212;-78
2023/01/07 01:20:38;;;;;;;117.97;51.40;;;;;;;;;;5048884;28;20185;-77
2023/01/07 01:23:05;;;;;;;105.50;51.90;;;;;;;;;;5068566;28;20181;-78
2023/01/07 01:25:31;;;;;;;108.10;50.40;;;;;;;;;;5052607;28;20178;-77
2023/01/07 01:27:57;;;;;;;113.40;50.63;;;;;;;;;;5069456;28;20257;-77
2023/01/07 01:30:23;;;;;;;104.77;50.23;;;;;;;;;;5057458;28;20264;-78
2023/01/07 01:32:49;;;;;;;86.80;47.00;;;;;;;;;;5067138;28;20300;-76
2023/01/07 01:35:15;;;;;;;107.63;51.93;;;;;;;;;;5054844;28;20273;-78
2023/01/07 01:37:41;;;;;;;82.87;46.57;;;;;;;;;;5067385;28;20561;-77
2023/01/07 01:40:07;;;;;;;89.47;48.63;;;;;;;;;;5069123;28;20193;-76
2023/01/07 01:42:33;;;;;;;87.30;47.23;;;;;;;;;;5059003;28;20224;-76
2023/01/07 01:45:01;;;;;;;95.93;49.53;;;;;;;;;;5052315;28;20298;-76
2023/01/07 01:47:29;;;;;;;116.73;54.73;;;;;;;;;;5066034;28;20189;-78
2023/01/07 01:49:55;;;;;;;136.50;59.00;;;;;;;;;;5073447;28;20280;-77
2023/01/07 01:52:24;;;;;;;131.73;58.17;;;;;;;;;;5068220;28;20315;-77
2023/01/07 01:54:52;;;;;;;111.80;56.63;;;;;;;;;;5055537;28;20524;-77
2023/01/07 01:57:19;;;;;;;123.60;58.57;;;;;;;;;;5052586;28;20279;-77
2023/01/07 01:59:47;;;;;;;124.80;58.13;;;;;;;;;;5053088;28;20223;-77
2023/01/07 02:02:14;;;;;;;137.27;59.17;;;;;;;;;;5070445;28;20250;-77
2023/01/07 02:04:41;;;;;;;121.93;57.53;;;;;;;;;;5072480;28;20177;-78
2023/01/07 02:07:10;;;;;;;129.37;57.13;;;;;;;;;;5055129;28;20200;-77
2023/01/07 02:09:36;;;;;;;131.33;56.70;;;;;;;;;;5074123;28;20240;-76
2023/01/07 02:12:05;;;;;;;105.13;52.93;;;;;;;;;;5055431;28;20231;-77
2023/01/07 02:14:31;;;;;;;112.73;53.80;;;;;;;;;;5072013;28;20173;-77
2023/01/07 02:17:01;;;;;;;95.90;50.30;;;;;;;;;;5070744;28;20185;-77
2023/01/07 02:19:36;;;;;;;96.17;50.63;;;;;;;;;;5071556;28;20181;-77
2023/01/07 02:22:20;;;;;;;89.40;47.53;;;;;;;;;;5053542;28;20196;-76
2023/01/07 02:24:55;;;;;;;94.70;45.53;;;;;;;;;;5054925;28;20177;-77
2023/01/07 02:27:24;;;;;;;93.83;46.90;;;;;;;;;;5072423;28;20271;-77
2023/01/07 02:29:53;;;;;;;87.67;46.10;;;;;;;;;;5054756;28;20189;-77
2023/01/07 02:32:39;;;;;;;100.90;47.67;;;;;;;;;;5054375;28;20251;-76
2023/01/07 02:38:39;;;;;;;111.53;47.90;;;;;;;;;;5069115;28;20216;-78
2023/01/07 02:41:35;;;;;;;101.77;46.67;;;;;;;;;;5054962;28;20216;-76
2023/01/07 02:44:07;;;;;;;104.40;46.90;;;;;;;;;;5010718;28;20606;-77
2023/01/07 02:46:36;;;;;;;119.20;51.13;;;;;;;;;;5010521;28;20230;-76
2023/01/07 02:49:07;;;;;;;108.97;49.40;;;;;;;;;;5010553;28;20191;-77
2023/01/07 02:51:35;;;;;;;160.13;54.50;;;;;;;;;;5009816;28;20610;-76
2023/01/07 02:54:01;;;;;;;124.07;53.97;;;;;;;;;;5009541;28;20195;-77
2023/01/07 02:56:27;;;;;;;172.27;61.17;;;;;;;;;;5004070;28;20578;-75
2023/01/07 02:59:11;;;;;;;140.87;54.30;;;;;;;;;;5000083;28;20230;-76
2023/01/07 03:01:52;;;;;;;147.80;57.17;;;;;;;;;;4992887;28;20202;-77
2023/01/07 03:04:20;;;;;;;165.90;60.23;;;;;;;;;;5009443;28;20179;-76
2023/01/07 03:06:53;;;;;;;117.97;53.73;;;;;;;;;;4993997;28;20201;-77
2023/01/07 03:09:33;;;;;;;146.30;55.57;;;;;;;;;;4997584;28;20242;-77
2023/01/07 03:12:10;;;;;;;182.93;59.57;;;;;;;;;;5008162;28;20187;-77
2023/01/07 03:14:40;;;;;;;335.50;72.73;;;;;;;;;;5002690;28;20363;-76
2023/01/07 10:41:28;;;;;;;49.63;34.07;;;;;;;;;;5068655;28;20708;-78
2023/01/07 10:44:14;;;;;;;53.27;35.17;;;;;;;;;;5043477;28;20249;-79
2023/01/07 10:46:46;;;;;;;51.73;33.83;;;;;;;;;;5011652;28;20257;-79
2023/01/07 10:49:19;;;;;;;38.50;29.60;;;;;;;;;;5013328;28;20202;-79
2023/01/07 10:51:54;;;;;;;43.63;32.13;;;;;;;;;;5009858;28;20256;-78
2023/01/07 10:54:44;;;;;;;42.57;29.70;;;;;;;;;;4988024;28;20178;-78
2023/01/07 10:57:19;;;;;;;40.60;29.47;;;;;;;;;;5008644;28;20198;-79
2023/01/07 10:59:53;;;;;;;40.43;28.57;;;;;;;;;;5015812;28;20182;-78
2023/01/07 11:02:21;;;;;;;43.07;29.10;;;;;;;;;;5009457;28;20184;-79
2023/01/07 11:04:47;;;;;;;38.73;28.93;;;;;;;;;;5006105;28;20603;-79
2023/01/07 11:07:21;;;;;;;39.23;29.90;;;;;;;;;;4990802;28;20187;-79
2023/01/07 11:09:47;;;;;;;45.20;30.53;;;;;;;;;;5006432;28;20214;-79
2023/01/07 11:12:32;;;;;;;39.73;28.27;;;;;;;;;;4991613;28;20273;-79
2023/01/07 11:15:00;;;;;;;38.37;27.67;;;;;;;;;;5006362;28;20544;-79
2023/01/07 11:17:35;;;;;;;35.53;26.87;;;;;;;;;;4991316;28;20723;-79
2023/01/07 11:20:01;;;;;;;32.53;24.50;;;;;;;;;;5007865;28;21726;-80
2023/01/07 11:22:27;;;;;;;30.53;24.60;;;;;;;;;;5009690;28;20204;-80
2023/01/07 11:24:53;;;;;;;31.87;24.70;;;;;;;;;;5070913;28;20197;-80
2023/01/07 11:27:21;;;;;;;38.00;25.80;;;;;;;;;;5052427;28;20182;-80
2023/01/07 11:30:09;;;;;;;29.00;23.73;;;;;;;;;;5055087;28;20216;-79
2023/01/07 11:32:39;;;;;;;29.43;21.53;;;;;;;;;;5054330;28;20638;-83
2023/01/07 11:35:05;;;;;;;30.13;21.33;;;;;;;;;;5073276;28;20181;-83
2023/01/07 11:37:32;;;;;;;30.50;21.40;;;;;;;;;;5053355;28;20669;-84
2023/01/07 11:40:00;;;;;;;32.07;22.93;;;;;;;;;;5066923;28;20200;-84
2023/01/07 11:42:38;;;;;;;31.37;23.23;;;;;;;;;;5035568;28;20221;-83
2023/01/07 11:45:11;;;;;;;27.87;20.23;;;;;;;;;;5035055;28;20213;-82
2023/01/07 11:47:37;;;;;;;29.83;21.80;;;;;;;;;;5035596;28;20177;-83
2023/01/07 11:50:03;;;;;;;24.90;20.03;;;;;;;;;;5034356;28;20178;-83
2023/01/07 11:52:29;;;;;;;27.17;19.77;;;;;;;;;;5035912;28;20207;-83
2023/01/07 11:54:55;;;;;;;27.10;20.37;;;;;;;;;;5069081;28;20173;-82
2023/01/07 11:57:25;;;;;;;26.07;20.07;;;;;;;;;;5035693;28;20225;-84
2023/01/07 12:00:05;;;;;;;25.73;19.87;;;;;;;;;;5044939;28;20182;-84
2023/01/07 12:02:31;;;;;;;29.20;21.57;;;;;;;;;;5035799;28;20174;-83
2023/01/07 12:05:21;;;;;;;25.60;19.20;;;;;;;;;;5053962;28;20184;-82
2023/01/07 12:07:48;;;;;;;25.50;19.83;;;;;;;;;;5070339;28;20185;-84
2023/01/07 12:10:35;;;;;;;26.90;20.67;;;;;;;;;;5036324;28;20273;-82
2023/01/07 12:13:02;;;;;;;26.07;18.23;;;;;;;;;;5054864;28;20174;-84
2023/01/07 12:15:30;;;;;;;26.00;19.57;;;;;;;;;;5053348;28;20162;-83
2023/01/07 12:18:08;;;;;;;31.33;20.07;;;;;;;;;;5073866;28;20212;-81
2023/01/07 12:20:43;;;;;;;26.50;19.50;;;;;;;;;;5085937;28;20190;-80
2023/01/07 12:23:28;;;;;;;23.70;18.73;;;;;;;;;;5087767;28;20177;-82
2023/01/07 12:26:02;;;;;;;29.20;20.60;;;;;;;;;;5035571;28;20182;-85
2023/01/07 12:28:37;;;;;;;27.70;20.10;;;;;;;;;;5035205;28;20216;-85
2023/01/07 12:31:22;;;;;;;29.87;21.07;;;;;;;;;;5035937;28;20181;-82
2023/01/07 12:33:48;;;;;;;28.07;19.67;;;;;;;;;;5065250;28;20174;-83
2023/01/07 12:36:20;;;;;;;29.67;20.67;;;;;;;;;;5037060;28;20582;-83
2023/01/07 12:38:51;;;;;;;25.03;19.37;;;;;;;;;;5043761;28;20209;-82
2023/01/07 12:41:23;;;;;;;29.40;21.67;;;;;;;;;;5059991;28;20213;-85
2023/01/07 12:43:54;;;;;;;28.60;19.97;;;;;;;;;;5077873;28;20177;-84
2023/01/07 12:46:22;;;;;;;31.23;21.10;;;;;;;;;;5053603;28;20672;-81
2023/01/07 12:49:06;;;;;;;29.47;20.77;;;;;;;;;;5068690;28;20194;-83
2023/01/07 12:51:42;;;;;;;27.97;20.47;;;;;;;;;;5069556;28;20181;-84
2023/01/07 12:54:14;;;;;;;33.73;22.57;;;;;;;;;;5086668;28;20271;-83
2023/01/07 12:56:46;;;;;;;32.90;22.17;;;;;;;;;;5084368;28;20177;-83
2023/01/07 12:59:18;;;;;;;27.77;20.77;;;;;;;;;;5086150;28;20235;-83
2023/01/07 13:02:02;;;;;;;29.37;22.90;;;;;;;;;;5052607;28;20231;-84
2023/01/07 13:04:41;;;;;;;28.03;22.20;;;;;;;;;;5084428;28;20177;-82
2023/01/07 13:07:14;;;;;;;31.50;23.37;;;;;;;;;;5087280;28;20173;-84
2023/01/07 13:09:44;;;;;;;32.93;24.57;;;;;;;;;;5073939;28;20263;-84
2023/01/07 13:12:42;;;;;;;39.73;26.50;;;;;;;;;;5059921;28;20210;-84
2023/01/07 13:15:25;;;;;;;36.37;24.77;;;;;;;;;;5083072;28;20173;-82
2023/01/07 13:17:55;;;;;;;37.43;25.90;;;;;;;;;;5050755;28;20758;-82
2023/01/07 13:20:27;;;;;;;36.40;25.63;;;;;;;;;;5088221;28;20260;-84
2023/01/07 13:22:55;;;;;;;35.40;25.50;;;;;;;;;;5069636;28;20186;-82
2023/01/07 13:25:21;;;;;;;35.23;26.07;;;;;;;;;;5055458;28;20187;-83
2023/01/07 13:27:53;;;;;;;40.50;25.77;;;;;;;;;;5035387;28;20178;-83
2023/01/07 13:30:26;;;;;;;33.03;23.70;;;;;;;;;;5082868;28;20642;-85
2023/01/07 13:32:55;;;;;;;34.30;23.40;;;;;;;;;;5067401;28;20200;-84
2023/01/07 13:35:30;;;;;;;32.30;22.53;;;;;;;;;;5085701;28;20234;-82
2023/01/07 13:38:15;;;;;;;38.30;25.27;;;;;;;;;;5049628;28;20638;-81
2023/01/07 13:40:47;;;;;;;38.20;26.40;;;;;;;;;;5078171;28;20222;-80
2023/01/07 13:43:19;;;;;;;38.23;26.03;;;;;;;;;;5033491;28;20208;-79
2023/01/07 13:45:51;;;;;;;39.57;27.73;;;;;;;;;;5025063;28;20200;-79
2023/01/07 13:48:19;;;;;;;37.67;26.50;;;;;;;;;;5047277;28;20185;-79
2023/01/07 13:50:55;;;;;;;40.50;26.30;;;;;;;;;;5032905;28;20231;-80
2023/01/07 13:53:24;;;;;;;42.37;28.57;;;;;;;;;;5049097;28;20276;-79
2023/01/07 13:55:50;;;;;;;45.17;28.67;;;;;;;;;;5066450;28;20631;-80
2023/01/07 13:58:36;;;;;;;39.27;27.70;;;;;;;;;;5054238;28;20271;-80
2023/01/07 14:01:07;;;;;;;41.57;27.70;;;;;;;;;;5039835;28;20195;-80
2023/01/07 14:03:33;;;;;;;44.37;28.97;;;;;;;;;;5033392;28;20190;-84
2023/01/07 14:06:20;;;;;;;46.43;30.70;;;;;;;;;;5025480;28;20186;-80
2023/01/07 14:08:49;;;;;;;44.70;29.07;;;;;;;;;;5030696;28;20193;-81
2023/01/07 14:11:16;;;;;;;43.33;28.27;;;;;;;;;;5036226;28;20188;-80
2023/01/07 14:13:45;;;;;;;41.37;27.03;;;;;;;;;;5034922;28;20174;-80
2023/01/07 14:16:20;;;;;;;38.10;26.47;;;;;;;;;;5037110;28;20223;-80
2023/01/07 14:18:55;;;;;;;37.73;25.23;;;;;;;;;;5032797;28;20235;-80
2023/01/07 14:21:39;;;;;;;35.10;24.13;;;;;;;;;;5034381;28;20181;-80
2023/01/07 14:24:06;;;;;;;37.07;23.73;;;;;;;;;;5055608;28;20200;-81
2023/01/07 14:26:36;;;;;;;33.90;22.60;;;;;;;;;;5032699;28;20658;-80
2023/01/07 14:29:37;;;;;;;33.13;22.70;;;;;;;;;;5033567;28;20592;-80
2023/01/07 14:32:19;;;;;;;33.87;22.90;;;;;;;;;;4991639;28;20641;-81
2023/01/07 14:34:53;;;;;;;33.77;23.30;;;;;;;;;;4992281;28;20560;-80
2023/01/07 14:37:28;;;;;;;36.07;24.77;;;;;;;;;;4993261;28;20308;-80
2023/01/07 14:39:54;;;;;;;31.43;22.27;;;;;;;;;;4990929;28;20218;-79
2023/01/07 14:42:20;;;;;;;34.90;22.67;;;;;;;;;;4990121;28;20227;-80
2023/01/07 14:44:47;;;;;;;35.13;24.67;;;;;;;;;;5006064;28;20762;-80
2023/01/07 14:47:14;;;;;;;36.10;24.63;;;;;;;;;;4993599;28;20195;-80
2023/01/07 14:49:52;;;;;;;32.27;22.87;;;;;;;;;;4994275;28;20664;-81
2023/01/07 14:52:39;;;;;;;31.50;23.47;;;;;;;;;;5007694;28;20214;-81
2023/01/07 14:55:20;;;;;;;38.80;24.17;;;;;;;;;;5011444;28;20189;-80
2023/01/07 14:57:46;;;;;;;35.47;23.70;;;;;;;;;;4999605;28;20771;-81
2023/01/07 15:00:15;;;;;;;36.17;23.47;;;;;;;;;;5001442;28;20403;-79
2023/01/07 15:02:57;;;;;;;38.03;25.13;;;;;;;;;;5003383;28;20213;-81
2023/01/07 15:05:37;;;;;;;40.40;24.97;;;;;;;;;;5016858;28;20617;-80
2023/01/07 15:16:27;;;;;;;43.63;27.80;;;;;;;;;;5089753;28;20187;-79
2023/01/07 15:18:53;;;;;;;51.37;30.10;;;;;;;;;;5076020;28;20424;-80
2023/01/07 15:21:30;;;;;;;46.13;29.33;;;;;;;;;;5071901;28;20181;-80
2023/01/07 15:23:59;;;;;;;53.40;30.07;;;;;;;;;;5053365;28;20709;-80
2023/01/07 15:26:36;;;;;;;46.80;29.30;;;;;;;;;;5051510;28;20186;-80
2023/01/07 15:29:12;;;;;;;55.03;30.63;;;;;;;;;;5052320;28;20187;-80
2023/01/07 15:31:50;;;;;;;55.07;32.03;;;;;;;;;;5068158;28;20188;-80
2023/01/07 15:34:16;;;;;;;53.63;31.20;;;;;;;;;;5045891;28;20201;-80
2023/01/07 15:36:44;;;;;;;52.30;30.67;;;;;;;;;;5056926;28;20183;-80
2023/01/07 15:39:18;;;;;;;53.80;32.43;;;;;;;;;;5053050;28;20208;-81
2023/01/07 15:41:45;;;;;;;53.40;33.03;;;;;;;;;;5041989;28;20231;-81
2023/01/07 15:44:17;;;;;;;54.13;32.67;;;;;;;;;;5032063;28;20232;-81
2023/01/07 15:46:43;;;;;;;53.90;31.50;;;;;;;;;;5047713;28;20200;-81
2023/01/07 15:49:09;;;;;;;50.57;30.37;;;;;;;;;;5031287;28;20657;-80
2023/01/07 15:51:55;;;;;;;54.17;31.77;;;;;;;;;;5044199;28;20181;-80
2023/01/07 15:54:27;;;;;;;47.17;30.10;;;;;;;;;;5034517;28;20196;-82
2023/01/07 15:57:22;;;;;;;52.80;29.93;;;;;;;;;;5048960;28;20185;-81
2023/01/07 15:59:50;;;;;;;53.27;31.30;;;;;;;;;;5038117;28;20197;-82
2023/01/07 16:02:37;;;;;;;66.10;34.90;;;;;;;;;;5034489;28;20181;-81
2023/01/07 16:05:04;;;;;;;51.37;31.30;;;;;;;;;;5033131;28;20219;-81
2023/01/07 16:07:41;;;;;;;51.70;31.30;;;;;;;;;;5035201;28;20186;-82
2023/01/07 16:10:17;;;;;;;48.00;31.20;;;;;;;;;;5030336;28;20189;-84
2023/01/07 16:12:47;;;;;;;50.90;31.10;;;;;;;;;;5034767;28;20276;-86
2023/01/07 16:15:20;;;;;;;48.77;29.20;;;;;;;;;;5032222;28;20190;-84
2023/01/07 16:17:51;;;;;;;53.07;30.93;;;;;;;;;;5068943;28;20746;-85
2023/01/07 16:20:22;;;;;;;45.80;29.97;;;;;;;;;;5069623;28;20181;-83
2023/01/07 16:22:48;;;;;;;52.00;31.73;;;;;;;;;;5032743;28;20208;-84
2023/01/07 16:25:20;;;;;;;53.70;30.03;;;;;;;;;;5034087;28;20724;-82
2023/01/07 16:27:46;;;;;;;50.23;30.13;;;;;;;;;;5035167;28;20709;-86
2023/01/07 16:30:16;;;;;;;44.00;27.67;;;;;;;;;;5031208;28;20214;-83
2023/01/07 16:32:43;;;;;;;48.93;29.37;;;;;;;;;;5055968;28;20696;-84
2023/01/07 16:35:13;;;;;;;47.03;29.80;;;;;;;;;;5035464;28;20544;-84
2023/01/07 16:37:39;;;;;;;52.57;30.83;;;;;;;;;;5035454;28;20178;-84
2023/01/07 16:40:14;;;;;;;62.33;35.60;;;;;;;;;;5034230;28;20670;-84
2023/01/07 16:42:45;;;;;;;98.20;47.80;;;;;;;;;;5055303;28;20229;-84
2023/01/07 16:45:21;;;;;;;118.00;58.43;;;;;;;;;;5051818;28;20215;-84
2023/01/07 16:47:57;;;;;;;85.43;47.53;;;;;;;;;;5056001;28;20264;-84
2023/01/07 16:50:23;;;;;;;94.77;49.60;;;;;;;;;;5039041;28;20181;-83
2023/01/07 16:52:54;;;;;;;116.87;58.20;;;;;;;;;;5052136;28;20319;-84
2023/01/07 16:55:38;;;;;;;87.70;47.07;;;;;;;;;;5065517;28;20196;-85
2023/01/07 16:58:04;;;;;;;84.70;50.60;;;;;;;;;;5055052;28;20296;-83
2023/01/07 17:00:30;;;;;;;71.87;41.77;;;;;;;;;;5055781;28;20263;-85
2023/01/07 17:02:58;;;;;;;57.87;35.43;;;;;;;;;;5054696;28;20223;-86
2023/01/07 17:05:25;;;;;;;60.57;36.97;;;;;;;;;;5055193;28;20196;-84
2023/01/07 17:07:58;;;;;;;56.97;34.40;;;;;;;;;;5055179;28;20185;-83
2023/01/07 17:10:26;;;;;;;59.47;35.63;;;;;;;;;;5072220;28;20169;-85
2023/01/07 17:12:59;;;;;;;56.87;34.13;;;;;;;;;;5055039;28;20268;-84
2023/01/07 17:15:31;;;;;;;54.73;32.77;;;;;;;;;;5054557;28;20268;-83
2023/01/07 17:18:13;;;;;;;59.90;35.23;;;;;;;;;;5050966;28;20267;-83
2023/01/07 17:20:42;;;;;;;67.97;39.53;;;;;;;;;;5054986;28;20173;-84
2023/01/07 17:23:26;;;;;;;56.40;35.33;;;;;;;;;;5053552;28;20181;-83
2023/01/07 17:25:55;;;;;;;61.30;38.63;;;;;;;;;;5057039;28;20227;-84
2023/01/07 17:28:22;;;;;;;59.10;35.43;;;;;;;;;;5072224;28;21048;-83
2023/01/07 17:30:48;;;;;;;58.83;36.67;;;;;;;;;;5088315;28;20181;-84
2023/01/07 17:33:15;;;;;;;60.20;35.90;;;;;;;;;;5056656;28;20173;-83
2023/01/07 17:35:45;;;;;;;61.07;37.23;;;;;;;;;;5056773;28;20619;-83
2023/01/07 17:38:12;;;;;;;60.57;36.80;;;;;;;;;;5058272;28;20214;-83
2023/01/07 17:40:38;;;;;;;56.20;36.30;;;;;;;;;;5059686;28;20196;-82
2023/01/07 17:45:49;;;;;;;58.20;36.87;;;;;;;;;;5047226;28;20218;-83
2023/01/07 17:48:15;;;;;;;59.43;37.30;;;;;;;;;;5052528;28;20259;-83
2023/01/07 17:50:41;;;;;;;55.43;35.23;;;;;;;;;;5045627;28;20232;-83
2023/01/07 17:53:13;;;;;;;58.27;35.17;;;;;;;;;;5039315;28;20220;-83
2023/01/07 17:55:39;;;;;;;58.70;37.80;;;;;;;;;;5071824;28;20551;-83
2023/01/07 17:58:09;;;;;;;54.93;35.67;;;;;;;;;;5051773;28;20213;-83
2023/01/07 18:00:35;;;;;;;54.53;35.57;;;;;;;;;;5044584;28;20269;-83
2023/01/07 18:03:01;;;;;;;59.50;36.83;;;;;;;;;;5073326;28;20177;-84
2023/01/07 18:05:27;;;;;;;55.20;36.40;;;;;;;;;;5054002;28;20533;-83
2023/01/07 18:07:53;;;;;;;60.87;37.43;;;;;;;;;;5072369;28;20184;-84
2023/01/07 18:10:21;;;;;;;60.83;39.20;;;;;;;;;;5069490;28;20235;-84
2023/01/07 18:12:47;;;;;;;58.57;37.93;;;;;;;;;;5079115;28;20188;-82
2023/01/07 18:15:16;;;;;;;59.40;40.40;;;;;;;;;;5067269;28;20205;-82
2023/01/07 18:17:42;;;;;;;58.83;36.63;;;;;;;;;;5093949;28;20174;-82
2023/01/07 18:20:09;;;;;;;61.13;41.33;;;;;;;;;;5060685;28;20164;-82
2023/01/07 18:22:35;;;;;;;53.27;37.80;;;;;;;;;;5065004;28;20154;-82
2023/01/07 18:25:01;;;;;;;51.97;36.40;;;;;;;;;;5049438;28;20186;-82
2023/01/07 18:27:27;;;;;;;57.80;39.43;;;;;;;;;;5071341;28;20249;-83
2023/01/07 18:29:53;;;;;;;51.87;36.53;;;;;;;;;;5040471;28;20187;-82
2023/01/07 18:32:19;;;;;;;58.07;40.03;;;;;;;;;;5037191;28;20197;-83
2023/01/07 18:34:45;;;;;;;51.63;37.33;;;;;;;;;;5073942;28;20174;-82
2023/01/07 18:37:13;;;;;;;59.53;39.33;;;;;;;;;;5038747;28;20189;-82
2023/01/07 18:39:39;;;;;;;58.90;39.93;;;;;;;;;;5038344;28;20308;-82
2023/01/07 18:42:05;;;;;;;61.63;38.27;;;;;;;;;;5079584;28;20305;-82
2023/01/07 18:44:31;;;;;;;58.20;38.37;;;;;;;;;;5053459;28;20664;-82
2023/01/07 18:46:57;;;;;;;59.53;39.07;;;;;;;;;;5055821;28;20177;-82
2023/01/07 18:49:23;;;;;;;54.63;37.07;;;;;;;;;;5055891;28;20634;-82
2023/01/07 18:51:49;;;;;;;54.00;37.23;;;;;;;;;;5050669;28;20218;-82
2023/01/07 18:54:16;;;;;;;69.47;43.90;;;;;;;;;;5055468;28;20185;-82
2023/01/07 18:56:44;;;;;;;67.50;43.63;;;;;;;;;;5069523;28;20213;-82
2023/01/07 18:59:10;;;;;;;81.47;47.67;;;;;;;;;;5036348;28;20251;-82
2023/01/07 19:01:36;;;;;;;79.40;47.97;;;;;;;;;;5071819;28;20187;-82
2023/01/07 19:04:03;;;;;;;87.90;51.20;;;;;;;;;;5053497;28;20185;-82
2023/01/07 19:06:29;;;;;;;83.30;49.53;;;;;;;;;;5052740;28;20181;-82
2023/01/07 19:08:55;;;;;;;81.73;51.80;;;;;;;;;;5050265;28;20223;-82
2023/01/07 19:11:21;;;;;;;88.63;53.80;;;;;;;;;;5054993;28;20216;-82
2023/01/07 19:13:47;;;;;;;89.83;52.50;;;;;;;;;;5056300;28;20173;-82
2023/01/07 19:16:14;;;;;;;92.33;54.70;;;;;;;;;;5054992;28;20638;-82
2023/01/07 19:18:40;;;;;;;93.47;54.50;;;;;;;;;;5071975;28;20219;-82
2023/01/07 19:21:07;;;;;;;95.37;56.07;;;;;;;;;;5069821;28;20181;-82
2023/01/07 19:23:33;;;;;;;99.53;56.03;;;;;;;;;;5055374;28;20177;-82
2023/01/07 19:26:00;;;;;;;98.20;57.80;;;;;;;;;;5056040;28;20603;-82
2023/01/07 19:28:27;;;;;;;91.27;54.73;;;;;;;;;;5055749;28;20280;-82
2023/01/07 19:30:53;;;;;;;98.43;57.27;;;;;;;;;;5053908;28;20181;-82
2023/01/07 19:33:19;;;;;;;95.47;57.90;;;;;;;;;;5054962;28;20185;-82
2023/01/07 19:35:45;;;;;;;94.80;57.40;;;;;;;;;;5054973;28;20189;-82
2023/01/07 19:38:11;;;;;;;107.43;59.07;;;;;;;;;;5054612;28;20665;-82
2023/01/07 19:40:41;;;;;;;96.60;60.40;;;;;;;;;;5059551;28;20173;-82
2023/01/07 19:43:07;;;;;;;105.73;60.80;;;;;;;;;;5084558;28;20181;-82
2023/01/07 19:45:33;;;;;;;99.03;59.37;;;;;;;;;;5054731;28;20204;-82
2023/01/07 19:47:59;;;;;;;98.43;56.87;;;;;;;;;;5053183;28;20187;-82
2023/01/07 19:50:25;;;;;;;105.77;57.70;;;;;;;;;;5055199;28;20177;-82
2023/01/07 19:52:51;;;;;;;93.73;56.00;;;;;;;;;;5055624;28;20645;-82
2023/01/07 19:55:17;;;;;;;96.10;57.17;;;;;;;;;;5053590;28;20181;-81
2023/01/07 19:57:43;;;;;;;90.57;54.57;;;;;;;;;;5055617;28;20226;-81
2023/01/07 20:00:09;;;;;;;106.37;57.53;;;;;;;;;;5052751;28;20620;-82
2023/01/07 20:02:36;;;;;;;99.97;59.43;;;;;;;;;;5053711;28;20208;-82
2023/01/07 20:05:04;;;;;;;110.53;61.63;;;;;;;;;;5055783;28;20181;-82
2023/01/07 20:07:32;;;;;;;107.17;60.47;;;;;;;;;;5053767;28;20556;-82
2023/01/07 20:09:59;;;;;;;108.43;62.23;;;;;;;;;;5053698;28;20654;-81
2023/01/07 20:12:25;;;;;;;103.83;60.37;;;;;;;;;;5071639;28;20177;-82
2023/01/07 20:14:51;;;;;;;93.67;57.93;;;;;;;;;;5052006;28;20190;-82
2023/01/07 20:17:17;;;;;;;106.93;62.90;;;;;;;;;;5054008;28;20216;-81
2023/01/07 20:19:43;;;;;;;97.40;60.67;;;;;;;;;;5073596;28;20410;-82
2023/01/07 20:22:10;;;;;;;102.47;60.80;;;;;;;;;;5056486;28;20189;-81
2023/01/07 20:24:36;;;;;;;105.70;63.40;;;;;;;;;;5051054;28;20185;-82
2023/01/07 20:27:02;;;;;;;108.00;62.03;;;;;;;;;;5053885;28;20176;-82
2023/01/07 20:29:28;;;;;;;103.63;65.77;;;;;;;;;;5054413;28;20654;-82
2023/01/07 20:31:54;;;;;;;110.60;66.53;;;;;;;;;;5054832;28;20583;-82
2023/01/07 20:34:20;;;;;;;99.10;65.90;;;;;;;;;;5054171;28;20185;-82
2023/01/07 20:36:50;;;;;;;101.40;64.83;;;;;;;;;;5051270;28;20204;-83
2023/01/07 20:39:16;;;;;;;92.63;61.17;;;;;;;;;;5052810;28;20209;-82
2023/01/07 20:41:42;;;;;;;94.90;61.13;;;;;;;;;;5051782;28;20228;-81
2023/01/07 20:44:10;;;;;;;88.30;56.50;;;;;;;;;;5053612;28;20182;-82
2023/01/07 20:46:38;;;;;;;90.63;58.13;;;;;;;;;;5055036;28;20204;-83
2023/01/07 20:49:04;;;;;;;91.57;55.00;;;;;;;;;;5071774;28;20645;-82
2023/01/07 20:51:30;;;;;;;83.93;53.43;;;;;;;;;;5052665;28;20326;-81
2023/01/07 20:53:57;;;;;;;82.93;56.20;;;;;;;;;;5051433;28;20190;-82
2023/01/07 20:56:24;;;;;;;87.93;56.07;;;;;;;;;;5053795;28;20173;-82
2023/01/07 20:58:51;;;;;;;71.17;52.13;;;;;;;;;;5054566;28;20195;-83
2023/01/07 21:01:20;;;;;;;74.23;51.93;;;;;;;;;;5055139;28;20614;-81
2023/01/07 21:03:46;;;;;;;74.53;51.87;;;;;;;;;;5056023;28;20184;-82
2023/01/07 21:06:14;;;;;;;78.33;54.13;;;;;;;;;;5057461;28;20233;-81
2023/01/07 21:08:40;;;;;;;73.57;51.77;;;;;;;;;;5058138;28;20234;-81
2023/01/07 21:11:13;;;;;;;74.53;51.43;;;;;;;;;;5057788;28;20180;-82
2023/01/07 21:13:39;;;;;;;83.73;53.00;;;;;;;;;;5059747;28;20189;-82
2023/01/07 21:16:05;;;;;;;76.40;52.33;;;;;;;;;;5078031;28;20173;-82
2023/01/07 21:18:32;;;;;;;75.33;51.73;;;;;;;;;;5078837;28;20200;-82
2023/01/07 21:20:59;;;;;;;79.93;52.27;;;;;;;;;;5073885;28;20190;-82
2023/01/07 21:23:26;;;;;;;72.87;49.03;;;;;;;;;;5051830;28;20181;-82
2023/01/07 21:25:52;;;;;;;80.03;51.73;;;;;;;;;;5056307;28;20162;-83
2023/01/07 21:28:18;;;;;;;74.67;51.77;;;;;;;;;;5055569;28;20189;-81
2023/01/07 21:30:45;;;;;;;81.37;51.40;;;;;;;;;;5052862;28;20584;-82
2023/01/07 21:33:11;;;;;;;76.53;51.93;;;;;;;;;;5053919;28;20189;-82
2023/01/07 21:35:40;;;;;;;73.23;50.77;;;;;;;;;;5055497;28;20185;-82
2023/01/07 21:38:06;;;;;;;75.20;50.93;;;;;;;;;;5037190;28;20201;-82
2023/01/07 21:40:32;;;;;;;78.40;52.77;;;;;;;;;;5056888;28;20196;-82
2023/01/07 21:42:58;;;;;;;80.30;52.40;;;;;;;;;;5055779;28;20170;-83
2023/01/07 21:45:24;;;;;;;82.47;50.83;;;;;;;;;;5071820;28;20188;-82
2023/01/07 21:47:50;;;;;;;81.17;52.73;;;;;;;;;;5072130;28;20242;-82
2023/01/07 21:50:17;;;;;;;80.67;53.03;;;;;;;;;;5056137;28;20173;-82
2023/01/07 21:52:43;;;;;;;77.13;50.43;;;;;;;;;;5054956;28;20629;-83
2023/01/07 21:55:09;;;;;;;73.33;50.50;;;;;;;;;;5052490;28;20215;-82
2023/01/07 21:57:35;;;;;;;84.37;52.13;;;;;;;;;;5054126;28;20180;-82
2023/01/07 22:00:02;;;;;;;77.97;50.17;;;;;;;;;;5055292;28;20189;-83
2023/01/07 22:02:28;;;;;;;80.93;51.43;;;;;;;;;;5054934;28;20173;-82
2023/01/07 22:04:54;;;;;;;83.47;54.23;;;;;;;;;;5059043;28;20234;-82
2023/01/07 22:07:20;;;;;;;81.23;51.23;;;;;;;;;;5070981;28;20185;-82
2023/01/07 22:09:46;;;;;;;77.07;49.07;;;;;;;;;;5052637;28;20665;-82
2023/01/07 22:12:12;;;;;;;78.30;50.13;;;;;;;;;;5039931;28;20519;-82
2023/01/07 22:14:39;;;;;;;80.63;51.37;;;;;;;;;;5058407;28;20242;-82
2023/01/07 22:17:05;;;;;;;82.43;52.20;;;;;;;;;;5059530;28;20177;-82